Time;durP1;ratioP1;P1;durP2;ratioP2;P2;SDS_P1;SDS_P2;PMS_P1;PMS_P2;Temp;Humidity;BMP_temperature;BMP_pressure;BME280_temperature;BME280_humidity;BME280_pressure;Samples;Min_cycle;Max_cycle;Signal;HPM_P1;HPM_P2
2022/08/24 00:00:31;;;;;;;4.90;3.57;;;20.60;67.90;;;;;;7379828;19;20465;-47
2022/08/24 00:03:01;;;;;;;4.00;3.17;;;20.60;68.30;;;;;;7382469;19;20455;-46
2022/08/24 00:05:35;;;;;;;4.20;3.17;;;20.40;69.20;;;;;;7382723;19;20960;-47
2022/08/24 00:08:05;;;;;;;4.20;3.80;;;20.20;70.90;;;;;;7372683;19;20399;-47
2022/08/24 00:10:35;;;;;;;4.83;3.20;;;20.20;72.00;;;;;;7377816;19;20380;-47
2022/08/24 00:13:05;;;;;;;3.37;3.07;;;20.50;70.50;;;;;;7377201;19;20917;-47
2022/08/24 00:15:35;;;;;;;3.27;2.97;;;20.70;68.50;;;;;;7379830;19;20813;-46
2022/08/24 00:18:04;;;;;;;3.30;3.00;;;20.60;68.10;;;;;;7379427;19;20384;-47
2022/08/24 00:20:37;;;;;;;3.90;3.23;;;20.70;68.10;;;;;;7383893;19;20372;-45
2022/08/24 00:23:06;;;;;;;4.13;3.50;;;20.80;67.40;;;;;;7379264;19;20922;-47
2022/08/24 00:25:40;;;;;;;3.20;2.90;;;20.90;68.10;;;;;;7377475;19;20371;-45
2022/08/24 00:28:10;;;;;;;4.20;3.37;;;20.80;67.20;;;;;;7370469;19;21048;-45
2022/08/24 00:30:40;;;;;;;3.87;3.50;;;20.70;67.80;;;;;;7358266;19;20727;-45
2022/08/24 00:33:09;;;;;;;4.00;3.07;;;20.60;68.60;;;;;;7366426;19;20388;-45
2022/08/24 00:35:41;;;;;;;5.60;3.17;;;20.60;68.30;;;;;;7378112;19;20391;-45
2022/08/24 00:38:11;;;;;;;4.23;3.40;;;20.40;69.20;;;;;;7375177;19;21302;-45
2022/08/24 00:40:42;;;;;;;3.63;3.33;;;20.30;70.40;;;;;;7376572;19;20941;-45
2022/08/24 00:43:13;;;;;;;4.57;2.87;;;20.30;70.40;;;;;;7375903;19;20376;-46
2022/08/24 00:45:45;;;;;;;3.30;3.00;;;20.50;70.10;;;;;;7376386;19;20387;-46
2022/08/24 00:48:20;;;;;;;5.27;2.93;;;20.50;69.80;;;;;;7376532;19;20909;-45
2022/08/24 00:50:57;;;;;;;3.87;3.50;;;20.50;69.30;;;;;;7376309;19;20379;-45
2022/08/24 00:53:30;;;;;;;3.80;3.50;;;20.40;68.90;;;;;;7372576;19;20375;-46
2022/08/24 00:56:04;;;;;;;4.97;3.30;;;20.60;68.00;;;;;;7373416;19;21503;-45
2022/08/24 00:58:39;;;;;;;4.30;2.80;;;20.50;68.70;;;;;;7371708;19;20427;-45
2022/08/24 01:01:12;;;;;;;3.10;2.77;;;20.40;69.20;;;;;;7370908;19;20428;-45
2022/08/24 01:03:45;;;;;;;4.23;3.70;;;20.50;68.30;;;;;;7379129;19;20376;-46
2022/08/24 01:06:19;;;;;;;4.43;2.83;;;20.70;67.00;;;;;;7376047;19;20406;-45
2022/08/24 01:08:49;;;;;;;3.77;3.47;;;20.70;66.90;;;;;;7370751;19;20823;-45
2022/08/24 01:11:23;;;;;;;4.00;3.07;;;20.70;67.20;;;;;;7376972;19;20379;-45
2022/08/24 01:13:55;;;;;;;5.63;3.13;;;20.50;67.80;;;;;;7378578;19;21028;-45
2022/08/24 01:19:14;;;;;;;5.07;3.47;;;20.20;69.40;;;;;;7372537;19;20423;-45
2022/08/24 01:21:56;;;;;;;4.20;3.10;;;20.20;69.20;;;;;;7380672;19;20451;-45
2022/08/24 01:24:28;;;;;;;3.83;3.30;;;20.40;68.30;;;;;;7376577;19;20365;-45
2022/08/24 01:26:58;;;;;;;6.10;3.63;;;20.10;69.90;;;;;;7374904;19;20521;-45
2022/08/24 01:29:31;;;;;;;12.93;5.50;;;19.90;70.80;;;;;;7377373;19;20447;-45
2022/08/24 01:32:01;;;;;;;3.30;2.80;;;19.80;71.10;;;;;;7370324;19;20372;-45
2022/08/24 01:34:31;;;;;;;4.07;3.50;;;19.70;71.00;;;;;;7378160;19;20403;-45
2022/08/24 01:37:01;;;;;;;5.47;3.23;;;19.60;72.20;;;;;;7375642;19;20372;-45
2022/08/24 01:39:35;;;;;;;4.63;3.50;;;19.30;73.60;;;;;;7372989;19;20428;-45
2022/08/24 01:42:06;;;;;;;4.20;3.30;;;19.40;73.70;;;;;;7375771;19;20379;-45
2022/08/24 01:44:39;;;;;;;7.93;3.57;;;19.50;73.20;;;;;;7378178;19;20405;-45
2022/08/24 01:47:13;;;;;;;5.77;3.70;;;19.40;73.90;;;;;;7374299;19;20383;-45
2022/08/24 01:49:46;;;;;;;3.90;3.00;;;19.40;73.80;;;;;;7373994;19;20405;-45
2022/08/24 01:52:21;;;;;;;3.13;2.83;;;19.40;73.70;;;;;;7377437;19;20463;-45
2022/08/24 01:54:54;;;;;;;3.30;3.00;;;19.60;72.90;;;;;;7370409;19;20367;-45
2022/08/24 01:57:27;;;;;;;7.30;3.37;;;19.60;72.50;;;;;;7367527;19;20372;-45
2022/08/24 01:59:58;;;;;;;3.93;3.60;;;19.60;72.50;;;;;;7376094;19;20705;-45
2022/08/24 02:02:31;;;;;;;3.30;3.00;;;19.50;73.30;;;;;;7373697;19;20384;-45
2022/08/24 02:05:01;;;;;;;4.53;4.13;;;19.40;73.90;;;;;;7376456;19;21310;-45
2022/08/24 02:07:31;;;;;;;3.50;3.07;;;19.50;73.30;;;;;;7373941;19;21477;-45
2022/08/24 02:10:04;;;;;;;4.40;3.10;;;19.70;72.40;;;;;;7372342;19;20388;-45
2022/08/24 02:12:34;;;;;;;3.70;2.80;;;19.60;72.90;;;;;;7386238;19;20368;-45
2022/08/24 02:15:05;;;;;;;5.33;3.73;;;19.50;73.50;;;;;;7382899;19;20395;-45
2022/08/24 02:17:37;;;;;;;5.83;3.37;;;19.70;72.50;;;;;;7379285;19;20960;-45
2022/08/24 02:20:08;;;;;;;4.30;3.20;;;20.00;71.00;;;;;;7379288;19;20745;-46
2022/08/24 02:22:38;;;;;;;4.63;3.73;;;19.80;71.00;;;;;;7380809;19;20376;-46
2022/08/24 02:25:11;;;;;;;4.10;3.70;;;19.70;71.60;;;;;;7380655;19;20435;-45
2022/08/24 02:27:43;;;;;;;4.43;3.37;;;19.90;71.20;;;;;;7382639;19;20371;-45
2022/08/24 02:30:13;;;;;;;4.30;3.50;;;20.20;70.00;;;;;;7376050;19;20403;-46
2022/08/24 02:32:43;;;;;;;4.27;3.60;;;20.10;70.40;;;;;;7381443;19;20532;-46
2022/08/24 02:35:13;;;;;;;4.93;3.40;;;19.70;71.50;;;;;;7379599;19;20401;-46
2022/08/24 02:37:45;;;;;;;5.10;3.13;;;19.40;73.70;;;;;;7379998;19;20391;-46
2022/08/24 02:40:19;;;;;;;3.43;2.90;;;19.20;74.90;;;;;;7379180;19;20372;-46
2022/08/24 02:42:49;;;;;;;4.40;2.80;;;19.10;75.80;;;;;;7383464;19;20384;-46
2022/08/24 02:45:19;;;;;;;4.10;3.30;;;19.00;77.70;;;;;;7378594;19;20368;-46
2022/08/24 02:47:51;;;;;;;6.63;3.37;;;19.10;77.40;;;;;;7382130;19;20380;-46
2022/08/24 02:50:22;;;;;;;3.70;3.40;;;19.30;75.30;;;;;;7382262;19;20368;-46
2022/08/24 02:52:53;;;;;;;3.73;3.43;;;19.10;75.90;;;;;;7379754;19;20372;-46
2022/08/24 02:55:27;;;;;;;4.83;3.63;;;19.30;75.30;;;;;;7379882;19;20372;-46
2022/08/24 02:57:57;;;;;;;4.50;3.50;;;19.40;74.60;;;;;;7377241;19;20364;-46
2022/08/24 03:00:26;;;;;;;3.30;2.87;;;19.20;75.20;;;;;;7378301;19;20955;-45
2022/08/24 03:02:57;;;;;;;4.40;3.90;;;19.40;75.80;;;;;;7383308;19;20372;-46
2022/08/24 03:05:27;;;;;;;6.30;3.60;;;19.40;74.20;;;;;;7379534;19;20381;-45
2022/08/24 03:07:58;;;;;;;3.40;3.10;;;19.40;74.50;;;;;;7371873;19;20376;-46
2022/08/24 03:10:30;;;;;;;3.67;3.37;;;19.20;75.10;;;;;;7379647;19;20383;-45
2022/08/24 03:13:01;;;;;;;4.27;3.57;;;19.10;76.40;;;;;;7376911;19;20400;-46
2022/08/24 03:15:31;;;;;;;4.43;3.23;;;19.30;75.80;;;;;;7378425;19;20440;-46
2022/08/24 03:18:00;;;;;;;4.23;3.80;;;19.50;74.20;;;;;;7381424;19;20502;-46
2022/08/24 03:20:30;;;;;;;4.37;3.40;;;19.50;74.40;;;;;;7381318;19;20376;-46
2022/08/24 03:23:00;;;;;;;4.33;3.63;;;19.30;75.00;;;;;;7375059;19;20376;-46
2022/08/24 03:25:33;;;;;;;6.60;3.67;;;19.30;75.50;;;;;;7377738;19;20368;-46
2022/08/24 03:28:03;;;;;;;4.27;3.50;;;19.30;75.60;;;;;;7379675;19;20741;-46
2022/08/24 03:30:32;;;;;;;3.80;3.50;;;19.10;77.20;;;;;;7377602;19;20502;-46
2022/08/24 03:33:04;;;;;;;4.20;3.83;;;18.80;80.10;;;;;;7381400;19;20460;-46
2022/08/24 03:35:34;;;;;;;5.43;3.90;;;18.60;81.10;;;;;;7373281;19;20368;-47
2022/08/24 03:38:03;;;;;;;4.57;4.17;;;18.70;81.30;;;;;;7375258;19;20368;-46
2022/08/24 03:40:36;;;;;;;5.83;4.23;;;18.60;81.90;;;;;;7382987;19;20399;-46
2022/08/24 03:43:06;;;;;;;4.20;3.33;;;18.70;81.10;;;;;;7379480;19;20419;-47
2022/08/24 03:45:36;;;;;;;4.33;3.93;;;18.80;81.40;;;;;;7368488;19;20416;-46
2022/08/24 03:48:07;;;;;;;3.50;3.20;;;18.90;80.90;;;;;;7378862;19;20376;-46
2022/08/24 03:50:36;;;;;;;4.73;4.20;;;19.10;79.10;;;;;;7367559;19;20409;-46
2022/08/24 03:53:06;;;;;;;6.10;4.33;;;19.40;78.50;;;;;;7375887;19;20902;-47
2022/08/24 03:55:38;;;;;;;4.30;3.90;;;19.40;77.00;;;;;;7380230;19;20411;-46
2022/08/24 03:58:08;;;;;;;8.60;4.00;;;19.50;76.00;;;;;;7378936;19;20713;-47
2022/08/24 04:00:41;;;;;;;6.50;3.97;;;19.50;75.90;;;;;;7372284;19;20433;-47
2022/08/24 04:03:14;;;;;;;6.73;4.43;;;19.20;77.40;;;;;;7367746;19;20982;-46
2022/08/24 04:05:44;;;;;;;4.00;3.70;;;18.90;79.60;;;;;;7373826;19;20500;-46
2022/08/24 04:08:13;;;;;;;6.10;4.40;;;18.60;83.30;;;;;;7375470;19;20389;-47
2022/08/24 04:10:48;;;;;;;4.77;4.30;;;18.70;83.80;;;;;;7375779;19;20387;-46
2022/08/24 04:13:18;;;;;;;5.67;4.37;;;18.70;83.60;;;;;;7379658;19;20428;-46
2022/08/24 04:15:50;;;;;;;7.73;4.60;;;18.60;84.40;;;;;;7368483;19;20962;-46
2022/08/24 04:18:20;;;;;;;4.67;4.03;;;18.70;84.20;;;;;;7370689;19;20376;-46
2022/08/24 04:20:49;;;;;;;5.07;4.23;;;18.80;83.20;;;;;;7375612;19;20380;-46
2022/08/24 04:23:20;;;;;;;6.20;4.60;;;19.00;81.60;;;;;;7372045;19;20376;-46
2022/08/24 04:25:52;;;;;;;4.93;4.07;;;18.80;82.40;;;;;;7369630;19;20376;-46
2022/08/24 04:28:22;;;;;;;4.60;4.20;;;18.80;83.00;;;;;;7367216;19;20391;-46
2022/08/24 04:30:52;;;;;;;5.00;4.50;;;18.90;82.80;;;;;;7376903;19;20464;-46
2022/08/24 04:33:33;;;;;;;4.70;3.93;;;19.00;81.90;;;;;;7367902;19;20783;-46
2022/08/24 04:36:04;;;;;;;4.80;3.60;;;19.10;81.30;;;;;;7366084;19;20376;-47
2022/08/24 04:38:38;;;;;;;4.10;3.80;;;19.10;80.40;;;;;;7373515;19;20457;-47
2022/08/24 04:41:25;;;;;;;5.40;4.00;;;19.30;79.10;;;;;;7379354;19;20380;-47
2022/08/24 04:43:54;;;;;;;5.30;4.90;;;19.30;78.50;;;;;;7375047;19;20925;-46
2022/08/24 04:46:24;;;;;;;5.00;4.60;;;19.10;80.40;;;;;;7363959;19;20379;-46
2022/08/24 04:48:54;;;;;;;5.93;4.47;;;18.90;82.30;;;;;;7373847;19;20376;-46
2022/08/24 04:51:24;;;;;;;4.10;3.80;;;19.00;82.30;;;;;;7380220;19;20978;-46
2022/08/24 04:53:54;;;;;;;7.70;5.33;;;19.20;80.70;;;;;;7373650;19;20379;-46
2022/08/24 04:56:28;;;;;;;8.40;4.27;;;19.40;79.70;;;;;;7379814;19;20387;-47
2022/08/24 04:58:59;;;;;;;4.90;4.10;;;19.40;78.30;;;;;;7382316;19;20371;-46
2022/08/24 05:01:31;;;;;;;6.07;4.10;;;19.20;79.10;;;;;;7379293;19;20447;-47
2022/08/24 05:04:01;;;;;;;6.10;4.17;;;19.00;80.80;;;;;;7371816;19;20364;-47
2022/08/24 05:06:34;;;;;;;5.70;4.67;;;19.20;79.90;;;;;;7382136;19;20384;-46
2022/08/24 05:09:05;;;;;;;8.30;4.13;;;19.20;79.80;;;;;;7370018;19;20735;-47
2022/08/24 05:11:41;;;;;;;7.20;4.27;;;19.10;80.60;;;;;;7371404;19;21005;-46
2022/08/24 05:14:10;;;;;;;5.80;4.47;;;19.10;81.60;;;;;;7378348;19;20371;-47
2022/08/24 05:16:40;;;;;;;5.13;4.10;;;19.20;80.80;;;;;;7375650;19;20372;-47
2022/08/24 05:19:11;;;;;;;7.83;4.77;;;19.10;81.60;;;;;;7373580;19;20391;-46
2022/08/24 05:21:43;;;;;;;9.83;4.80;;;19.20;80.30;;;;;;7369995;19;20356;-47
2022/08/24 05:24:12;;;;;;;4.50;4.00;;;18.90;82.80;;;;;;7381010;19;21018;-46
2022/08/24 05:26:45;;;;;;;7.00;4.40;;;19.20;82.30;;;;;;7379454;19;20368;-46
2022/08/24 05:29:14;;;;;;;4.80;4.40;;;19.40;80.70;;;;;;7381755;19;20764;-46
2022/08/24 05:31:53;;;;;;;7.90;3.93;;;19.30;80.60;;;;;;7379566;19;20878;-46
2022/08/24 05:34:25;;;;;;;4.57;4.17;;;19.40;80.30;;;;;;7381661;19;20376;-47
2022/08/24 05:36:55;;;;;;;5.30;4.40;;;19.40;80.70;;;;;;7378761;19;21032;-47
2022/08/24 05:39:40;;;;;;;6.70;5.23;;;19.30;81.40;;;;;;7378099;19;20383;-47
2022/08/24 05:42:14;;;;;;;5.43;4.50;;;19.50;81.20;;;;;;7378389;19;20774;-47
2022/08/24 05:44:49;;;;;;;5.87;5.00;;;19.80;79.50;;;;;;7382151;19;20975;-46
2022/08/24 05:47:22;;;;;;;6.40;4.83;;;19.60;80.80;;;;;;7389177;19;21467;-47
2022/08/24 05:49:52;;;;;;;5.23;4.83;;;19.80;79.20;;;;;;7388198;19;20387;-46
2022/08/24 05:52:23;;;;;;;8.03;4.50;;;19.70;79.10;;;;;;7383990;19;20395;-46
2022/08/24 05:54:54;;;;;;;6.33;5.63;;;19.90;78.50;;;;;;7389312;19;20485;-46
2022/08/24 05:57:28;;;;;;;6.00;4.50;;;19.90;78.20;;;;;;7386077;19;20383;-46
2022/08/24 06:00:13;;;;;;;5.40;4.90;;;19.70;79.50;;;;;;7387790;19;20520;-46
2022/08/24 06:02:48;;;;;;;7.13;5.17;;;19.80;78.70;;;;;;7385032;19;20804;-47
2022/08/24 06:05:18;;;;;;;8.93;5.20;;;20.10;76.90;;;;;;7385342;19;20832;-47
2022/08/24 06:07:48;;;;;;;6.23;5.10;;;20.30;75.40;;;;;;7384585;19;20949;-47
2022/08/24 06:10:18;;;;;;;6.83;5.90;;;20.40;73.80;;;;;;7388930;19;20384;-47
2022/08/24 06:12:53;;;;;;;6.10;5.33;;;20.60;73.30;;;;;;7383350;19;21071;-47
2022/08/24 06:15:23;;;;;;;5.80;5.20;;;20.60;73.10;;;;;;7388012;19;20384;-47
2022/08/24 06:17:54;;;;;;;6.20;4.87;;;20.60;73.60;;;;;;7386359;19;20376;-47
2022/08/24 06:20:24;;;;;;;7.00;5.50;;;20.60;73.80;;;;;;7389827;19;20384;-47
2022/08/24 06:22:54;;;;;;;8.83;4.90;;;20.70;73.10;;;;;;7387931;19;20372;-47
2022/08/24 06:28:10;;;;;;;8.27;5.00;;;20.90;71.90;;;;;;7385614;19;20380;-47
2022/08/24 06:30:41;;;;;;;5.90;4.97;;;21.00;71.80;;;;;;7386713;19;20506;-46
2022/08/24 06:33:26;;;;;;;6.23;5.63;;;21.20;70.80;;;;;;7387400;19;20368;-46
2022/08/24 06:35:57;;;;;;;9.07;5.50;;;21.40;69.00;;;;;;7388205;19;20467;-47
2022/08/24 06:38:26;;;;;;;5.60;5.00;;;21.60;68.60;;;;;;7380521;19;20399;-46
2022/08/24 06:40:56;;;;;;;5.17;4.67;;;21.70;67.70;;;;;;7386894;19;20380;-46
2022/08/24 06:43:28;;;;;;;4.83;4.33;;;21.80;66.50;;;;;;7386433;19;20476;-46
2022/08/24 06:46:03;;;;;;;7.47;4.40;;;22.00;67.10;;;;;;7385825;19;20368;-46
2022/08/24 06:48:37;;;;;;;9.93;4.60;;;22.20;65.50;;;;;;7384174;19;20402;-46
2022/08/24 06:51:11;;;;;;;6.57;5.17;;;22.40;64.30;;;;;;7386430;19;20391;-45
2022/08/24 06:53:44;;;;;;;7.20;4.37;;;22.60;61.90;;;;;;7387339;19;20941;-46
2022/08/24 06:56:15;;;;;;;9.03;4.30;;;22.80;61.60;;;;;;7386028;19;20476;-45
2022/08/24 06:58:47;;;;;;;6.73;5.23;;;23.00;60.80;;;;;;7383223;19;20369;-47
2022/08/24 07:01:23;;;;;;;5.40;4.37;;;23.10;60.00;;;;;;7384407;19;20432;-46
2022/08/24 07:03:53;;;;;;;4.33;3.93;;;23.30;59.90;;;;;;7385750;19;20372;-45
2022/08/24 07:06:46;;;;;;;6.07;5.47;;;23.50;59.90;;;;;;7386102;19;20391;-45
2022/08/24 07:09:16;;;;;;;5.30;4.13;;;23.60;59.90;;;;;;7384765;19;20372;-46
2022/08/24 07:11:47;;;;;;;7.63;5.60;;;23.90;59.30;;;;;;7385589;19;20379;-46
2022/08/24 07:14:20;;;;;;;7.50;4.70;;;24.10;59.10;;;;;;7385273;19;20950;-46
2022/08/24 07:16:51;;;;;;;5.57;4.90;;;24.40;58.80;;;;;;7386782;19;20399;-47
2022/08/24 07:19:21;;;;;;;4.93;4.27;;;24.50;58.30;;;;;;7373491;19;20377;-46
2022/08/24 07:21:52;;;;;;;5.70;5.10;;;24.70;57.80;;;;;;7381161;19;20955;-47
2022/08/24 07:24:22;;;;;;;11.23;7.03;;;24.90;57.30;;;;;;7384633;19;20372;-47
2022/08/24 07:26:51;;;;;;;8.93;5.07;;;25.10;56.80;;;;;;7385076;19;20387;-46
2022/08/24 07:29:24;;;;;;;5.57;4.50;;;25.20;56.20;;;;;;7381326;19;20489;-46
2022/08/24 07:31:54;;;;;;;6.50;4.43;;;25.40;55.70;;;;;;7381695;19;20387;-46
2022/08/24 07:34:36;;;;;;;5.50;4.80;;;25.60;55.40;;;;;;7384865;19;20906;-47
2022/08/24 07:37:06;;;;;;;3.90;3.43;;;25.70;54.70;;;;;;7383205;19;20381;-47
2022/08/24 07:39:40;;;;;;;6.00;4.40;;;25.80;53.80;;;;;;7383442;19;20376;-48
2022/08/24 07:42:09;;;;;;;6.97;4.27;;;26.00;53.70;;;;;;7383217;19;20424;-46
2022/08/24 07:44:42;;;;;;;4.13;3.73;;;26.20;53.60;;;;;;7382423;19;20390;-46
2022/08/24 07:47:12;;;;;;;4.10;3.70;;;26.40;53.30;;;;;;7385358;19;20380;-46
2022/08/24 07:49:43;;;;;;;4.27;3.90;;;26.50;52.80;;;;;;7382546;19;20375;-47
2022/08/24 07:52:12;;;;;;;4.57;4.10;;;26.70;52.90;;;;;;7383017;19;20416;-47
2022/08/24 07:54:41;;;;;;;5.43;4.60;;;26.90;51.80;;;;;;7383692;19;20806;-46
2022/08/24 07:57:11;;;;;;;5.10;4.60;;;27.00;52.20;;;;;;7381653;19;20380;-46
2022/08/24 07:59:45;;;;;;;5.97;4.50;;;27.20;51.40;;;;;;7382015;19;20392;-46
2022/08/24 08:02:15;;;;;;;4.83;3.97;;;27.40;50.50;;;;;;7383513;19;20824;-46
2022/08/24 08:04:50;;;;;;;4.90;2.87;;;27.60;48.00;;;;;;7383744;19;20387;-46
2022/08/24 08:07:21;;;;;;;5.23;3.40;;;27.60;48.10;;;;;;7380520;19;20388;-47
2022/08/24 08:09:52;;;;;;;4.57;3.47;;;27.70;47.50;;;;;;7384571;19;20726;-47
2022/08/24 08:12:22;;;;;;;3.83;2.60;;;27.80;47.50;;;;;;7383306;19;20380;-47
2022/08/24 08:15:00;;;;;;;2.60;2.17;;;28.00;44.10;;;;;;7384124;19;20371;-47
2022/08/24 08:17:30;;;;;;;3.83;2.67;;;28.20;44.20;;;;;;7381441;19;20380;-47
2022/08/24 08:19:59;;;;;;;3.80;2.20;;;28.30;45.00;;;;;;7382165;19;20886;-47
2022/08/24 08:25:30;;;;;;;3.40;2.17;;;28.40;43.10;;;;;;7381741;19;20802;-47
2022/08/24 08:28:00;;;;;;;4.07;2.50;;;28.50;42.50;;;;;;7382289;19;20386;-47
2022/08/24 08:30:33;;;;;;;2.83;2.30;;;28.60;43.10;;;;;;7383632;19;20376;-47
2022/08/24 08:33:05;;;;;;;3.50;2.80;;;28.70;44.30;;;;;;7384061;19;20912;-48
2022/08/24 08:35:37;;;;;;;3.33;2.53;;;28.90;44.20;;;;;;7384224;19;20384;-47
2022/08/24 08:38:07;;;;;;;3.53;2.27;;;29.10;42.70;;;;;;7379919;19;20925;-47
2022/08/24 08:40:54;;;;;;;2.77;2.30;;;29.10;43.90;;;;;;7384676;19;20920;-47
2022/08/24 08:43:41;;;;;;;2.50;2.30;;;29.30;43.20;;;;;;7383442;19;20488;-47
2022/08/24 08:46:29;;;;;;;4.20;2.60;;;29.50;41.60;;;;;;7384012;19;20464;-48
2022/08/24 08:49:46;;;;;;;3.03;2.20;;;29.70;41.10;;;;;;7382133;19;20380;-48
2022/08/24 08:52:35;;;;;;;2.80;2.43;;;29.80;42.40;;;;;;7382769;19;20417;-47
2022/08/24 08:55:23;;;;;;;3.77;2.40;;;30.00;40.90;;;;;;7380558;19;20387;-49
2022/08/24 08:58:00;;;;;;;2.77;2.20;;;30.50;40.80;;;;;;7383225;19;21034;-47
2022/08/24 09:00:47;;;;;;;3.87;2.40;;;30.70;39.20;;;;;;7383029;19;20438;-47
2022/08/24 09:03:54;;;;;;;2.43;2.07;;;31.10;37.90;;;;;;7383707;19;20380;-48
2022/08/24 09:06:59;;;;;;;3.57;2.00;;;31.30;38.50;;;;;;7381512;19;20394;-47
2022/08/24 09:09:51;;;;;;;2.47;2.03;;;31.60;38.30;;;;;;7382377;19;21669;-47
2022/08/24 09:12:27;;;;;;;2.00;1.80;;;31.80;37.10;;;;;;7381358;19;20925;-46
2022/08/24 09:15:09;;;;;;;4.60;2.17;;;31.80;38.50;;;;;;7383900;19;20929;-48
2022/08/24 09:17:59;;;;;;;3.23;2.20;;;32.20;38.20;;;;;;7383264;19;20372;-49
2022/08/24 09:20:49;;;;;;;2.53;2.00;;;32.50;37.50;;;;;;7387692;19;20880;-48
2022/08/24 09:23:30;;;;;;;2.40;2.20;;;33.00;35.80;;;;;;7390164;19;20379;-48
2022/08/24 09:26:05;;;;;;;2.70;2.23;;;33.50;36.40;;;;;;7388201;19;20977;-48
2022/08/24 09:28:45;;;;;;;3.60;2.33;;;33.90;34.90;;;;;;7390033;19;20376;-48
2022/08/24 09:31:55;;;;;;;2.80;2.30;;;34.00;34.80;;;;;;7387440;19;20832;-48
2022/08/24 09:34:40;;;;;;;3.93;2.30;;;34.10;34.90;;;;;;7385948;19;20380;-48
2022/08/24 09:37:33;;;;;;;3.67;1.93;;;34.50;33.80;;;;;;7389515;19;20415;-48
2022/08/24 09:40:10;;;;;;;2.23;1.80;;;34.70;32.40;;;;;;7387018;19;20388;-48
2022/08/24 09:43:14;;;;;;;13.33;6.13;;;35.00;32.20;;;;;;7389018;19;20372;-48
2022/08/24 09:46:10;;;;;;;2.30;1.80;;;35.30;32.00;;;;;;7392413;19;20386;-48
2022/08/24 09:49:05;;;;;;;1.70;1.60;;;36.00;30.60;;;;;;7391214;19;20374;-45
2022/08/24 09:52:08;;;;;;;1.60;1.50;;;36.70;29.50;;;;;;7385509;19;20485;-48
2022/08/24 09:55:19;;;;;;;2.30;1.93;;;37.40;28.80;;;;;;7391109;19;20375;-46
2022/08/24 09:58:05;;;;;;;2.37;1.50;;;37.60;29.20;;;;;;7388174;19;20402;-46
2022/08/24 10:00:45;;;;;;;1.63;1.40;;;38.00;28.90;;;;;;7385373;19;20407;-46
2022/08/24 10:03:42;;;;;;;1.83;1.50;;;38.40;28.20;;;;;;7387398;19;20375;-47
2022/08/24 10:06:26;;;;;;;2.47;1.70;;;39.10;27.10;;;;;;7386901;19;20376;-46
2022/08/24 10:09:16;;;;;;;1.70;1.43;;;38.90;28.20;;;;;;7389617;19;20387;-46
2022/08/24 10:11:53;;;;;;;1.80;1.70;;;39.30;28.10;;;;;;7388874;19;20383;-48
2022/08/24 10:14:44;;;;;;;2.07;1.60;;;39.70;27.70;;;;;;7385414;19;20398;-49
2022/08/24 10:17:22;;;;;;;2.20;2.00;;;39.90;27.50;;;;;;7386629;19;20376;-49
2022/08/24 10:20:05;;;;;;;1.90;1.70;;;40.10;27.50;;;;;;7386238;19;20413;-49
2022/08/24 10:23:04;;;;;;;2.87;1.70;;;40.00;27.10;;;;;;7390648;19;20910;-49
2022/08/24 10:25:40;;;;;;;2.70;1.50;;;40.40;26.80;;;;;;7388361;19;20398;-49
2022/08/24 10:28:46;;;;;;;3.00;1.63;;;40.40;27.10;;;;;;7389324;19;20373;-49
2022/08/24 10:31:26;;;;;;;1.73;1.53;;;40.50;26.60;;;;;;7382547;19;20384;-49
2022/08/24 10:34:17;;;;;;;1.90;1.70;;;40.40;26.30;;;;;;7385932;19;20832;-49
2022/08/24 10:37:01;;;;;;;1.60;1.50;;;40.90;25.80;;;;;;7384923;19;20894;-49
2022/08/24 10:40:02;;;;;;;2.80;1.77;;;40.90;25.90;;;;;;7386469;19;20380;-46
2022/08/24 10:46:05;;;;;;;1.73;1.60;;;40.60;26.60;;;;;;7387860;19;20415;-49
2022/08/24 10:49:02;;;;;;;2.33;1.73;;;41.00;26.30;;;;;;7384945;19;20419;-48
2022/08/24 10:51:44;;;;;;;1.77;1.63;;;41.20;26.40;;;;;;7389004;19;20379;-49
2022/08/24 10:54:15;;;;;;;2.67;1.80;;;40.80;26.70;;;;;;7388103;19;20659;-49
2022/08/24 10:56:56;;;;;;;1.97;1.80;;;40.50;26.20;;;;;;7388010;19;20372;-49
2022/08/24 10:59:33;;;;;;;3.23;1.80;;;40.70;26.40;;;;;;7383283;19;20924;-49
2022/08/24 11:02:08;;;;;;;2.57;1.80;;;40.80;26.20;;;;;;7385606;19;20958;-49
2022/08/24 11:04:42;;;;;;;2.60;1.50;;;40.70;26.70;;;;;;7382037;19;20398;-49
2022/08/24 11:07:19;;;;;;;2.10;1.60;;;41.00;26.50;;;;;;7388002;19;20420;-49
2022/08/24 11:09:54;;;;;;;2.10;1.83;;;41.60;25.50;;;;;;7387169;19;20408;-49
2022/08/24 11:12:30;;;;;;;1.60;1.33;;;40.80;25.80;;;;;;7385160;19;20380;-49
2022/08/24 11:15:05;;;;;;;1.73;1.60;;;40.30;26.40;;;;;;7385261;19;20417;-49
2022/08/24 11:17:36;;;;;;;1.70;1.53;;;40.50;27.00;;;;;;7382902;19;20993;-49
2022/08/24 11:20:27;;;;;;;1.60;1.50;;;41.00;26.60;;;;;;7384412;19;20826;-49
2022/08/24 11:23:05;;;;;;;2.60;1.57;;;41.90;26.00;;;;;;7385700;19;21184;-49
2022/08/24 11:25:38;;;;;;;1.97;1.40;;;42.60;25.10;;;;;;7383534;19;20386;-49
2022/08/24 11:28:21;;;;;;;3.93;1.77;;;43.40;24.80;;;;;;7384056;19;20383;-49
2022/08/24 11:30:51;;;;;;;1.60;1.43;;;43.70;24.60;;;;;;7386308;19;20380;-50
2022/08/24 11:33:32;;;;;;;1.60;1.40;;;43.90;24.30;;;;;;7381226;19;20382;-50
2022/08/24 11:36:17;;;;;;;1.50;1.40;;;44.30;24.00;;;;;;7387720;19;20368;-47
2022/08/24 11:38:46;;;;;;;1.50;1.40;;;45.30;23.10;;;;;;7384709;19;20372;-50
2022/08/24 11:41:23;;;;;;;1.50;1.40;;;45.30;23.60;;;;;;7384543;19;20393;-49
2022/08/24 11:44:03;;;;;;;1.83;1.47;;;44.90;23.40;;;;;;7381275;19;20397;-50
2022/08/24 11:46:38;;;;;;;1.40;1.30;;;44.70;23.50;;;;;;7384096;19;20815;-50
2022/08/24 11:49:16;;;;;;;1.70;1.60;;;44.80;23.40;;;;;;7384368;19;20379;-50
2022/08/24 11:51:57;;;;;;;1.90;1.57;;;44.70;22.70;;;;;;7384033;19;20372;-50
2022/08/24 11:54:32;;;;;;;1.70;1.47;;;44.10;23.90;;;;;;7383291;19;20364;-50
2022/08/24 11:57:09;;;;;;;1.23;1.13;;;44.30;23.50;;;;;;7384609;19;20399;-50
2022/08/24 11:59:47;;;;;;;1.30;1.20;;;44.60;23.30;;;;;;7382606;19;20411;-48
2022/08/24 12:02:25;;;;;;;2.07;1.60;;;45.00;22.60;;;;;;7383897;19;20447;-49
2022/08/24 12:05:03;;;;;;;1.23;1.10;;;44.90;22.50;;;;;;7382855;19;20384;-48
2022/08/24 12:07:48;;;;;;;1.40;1.30;;;44.90;22.20;;;;;;7384315;19;20383;-48
2022/08/24 12:10:27;;;;;;;2.00;1.07;;;44.70;22.80;;;;;;7382440;19;20379;-48
2022/08/24 12:13:05;;;;;;;1.20;1.10;;;45.00;22.50;;;;;;7384072;19;20372;-48
2022/08/24 12:15:43;;;;;;;1.50;1.40;;;44.50;22.10;;;;;;7382041;19;20877;-48
2022/08/24 12:18:26;;;;;;;1.87;1.30;;;44.10;23.70;;;;;;7379989;19;20380;-48
2022/08/24 12:20:59;;;;;;;1.67;1.40;;;44.10;22.90;;;;;;7381996;19;20395;-48
2022/08/24 12:23:38;;;;;;;1.70;1.53;;;44.00;23.40;;;;;;7381574;19;20507;-48
2022/08/24 12:26:13;;;;;;;2.93;1.30;;;44.70;22.50;;;;;;7385113;19;20456;-48
2022/08/24 12:28:47;;;;;;;1.50;1.40;;;45.10;22.70;;;;;;7383554;19;20375;-48
2022/08/24 12:31:23;;;;;;;3.20;1.40;;;45.70;21.80;;;;;;7379010;19;20670;-48
2022/08/24 12:33:56;;;;;;;1.37;1.10;;;45.40;22.20;;;;;;7383832;19;20383;-48
2022/08/24 12:36:33;;;;;;;1.60;1.27;;;45.20;22.40;;;;;;7383480;19;20367;-48
2022/08/24 12:39:12;;;;;;;1.40;1.17;;;45.50;22.10;;;;;;7381607;19;20395;-48
2022/08/24 12:41:53;;;;;;;1.83;1.10;;;45.80;21.70;;;;;;7377326;19;21212;-48
2022/08/24 12:44:28;;;;;;;1.53;1.30;;;45.70;22.30;;;;;;7383574;19;20382;-48
2022/08/24 12:46:57;;;;;;;1.60;1.40;;;45.60;22.10;;;;;;7378587;19;20784;-48
2022/08/24 12:49:32;;;;;;;2.27;1.53;;;44.50;21.70;;;;;;7378304;19;21281;-48
2022/08/24 12:52:25;;;;;;;2.20;1.40;;;43.90;22.20;;;;;;7374833;19;20367;-48
2022/08/24 12:55:21;;;;;;;1.50;1.23;;;43.10;23.50;;;;;;7379215;19;20957;-48
2022/08/24 12:58:06;;;;;;;1.20;1.10;;;43.30;23.20;;;;;;7384914;19;20953;-48
2022/08/24 13:00:41;;;;;;;2.07;1.50;;;43.50;22.60;;;;;;7379754;19;20439;-48
2022/08/24 13:03:28;;;;;;;1.33;1.23;;;43.30;23.30;;;;;;7380645;19;20383;-48
2022/08/24 13:06:01;;;;;;;1.87;1.13;;;42.90;22.70;;;;;;7380046;19;21287;-48
2022/08/24 13:08:38;;;;;;;1.73;1.20;;;42.70;22.70;;;;;;7385033;19;20379;-48
2022/08/24 13:11:15;;;;;;;1.77;1.57;;;41.70;23.20;;;;;;7382220;19;21164;-48
2022/08/24 13:13:49;;;;;;;2.13;1.50;;;42.20;24.00;;;;;;7380876;19;20372;-47
2022/08/24 13:16:49;;;;;;;1.80;1.43;;;42.90;23.50;;;;;;7379685;19;20748;-48
2022/08/24 13:19:33;;;;;;;1.50;1.40;;;43.50;22.50;;;;;;7022469;19;3007164;-48
2022/08/24 13:22:35;;;;;;;1.33;1.23;;;43.90;23.20;;;;;;7375459;19;20451;-48
2022/08/24 13:25:23;;;;;;;1.60;1.50;;;43.90;22.70;;;;;;7381220;19;20458;-48
2022/08/24 13:28:32;;;;;;;2.03;1.50;;;43.40;23.30;;;;;;7381440;19;20473;-47
2022/08/24 13:31:21;;;;;;;1.50;1.33;;;41.60;23.00;;;;;;7380628;19;20383;-48
2022/08/24 13:33:53;;;;;;;1.50;1.40;;;39.90;24.80;;;;;;7382660;19;20882;-47
2022/08/24 13:36:57;;;;;;;1.50;1.40;;;38.40;25.60;;;;;;7383640;19;20409;-47
2022/08/24 13:39:57;;;;;;;1.70;1.40;;;37.60;26.40;;;;;;7377835;19;20914;-47
2022/08/24 13:42:48;;;;;;;1.43;1.23;;;36.70;26.80;;;;;;7379434;19;20383;-47